Time;durP1;ratioP1;P1;durP2;ratioP2;P2;SDS_P1;SDS_P2;PMS_P1;PMS_P2;Temp;Humidity;BMP_temperature;BMP_pressure;BME280_temperature;BME280_humidity;BME280_pressure;Samples;Min_cycle;Max_cycle;Signal;HPM_P1;HPM_P2
2023/11/12 00:00:22;;;;;;;7.03;5.95;;;5.70;99.90;;;;;;494189;239;27929;-72
2023/11/12 00:02:24;;;;;;;13.55;5.47;;;5.70;99.90;;;;;;494238;240;27999;-73
2023/11/12 00:04:25;;;;;;;9.00;6.10;;;5.70;99.90;;;;;;494247;240;27468;-74
2023/11/12 00:06:26;;;;;;;7.03;4.78;;;5.70;99.90;;;;;;494209;240;27633;-72
2023/11/12 00:08:27;;;;;;;9.95;5.53;;;5.70;99.90;;;;;;494277;239;27558;-73
2023/11/12 00:10:29;;;;;;;8.73;5.85;;;5.70;99.90;;;;;;494237;240;27469;-72
2023/11/12 00:12:31;;;;;;;5.78;4.97;;;5.70;99.90;;;;;;494159;240;27515;-72
2023/11/12 00:14:31;;;;;;;10.63;5.85;;;5.70;99.90;;;;;;494192;240;28707;-72
2023/11/12 00:16:33;;;;;;;9.00;5.70;;;5.70;99.90;;;;;;494258;240;28030;-72
2023/11/12 00:18:34;;;;;;;6.35;5.18;;;5.70;99.90;;;;;;494283;240;27534;-72
2023/11/12 00:20:35;;;;;;;8.75;5.62;;;5.70;99.90;;;;;;494247;240;27453;-72
2023/11/12 00:22:36;;;;;;;7.00;4.60;;;5.80;99.90;;;;;;494260;240;27608;-72
2023/11/12 00:24:37;;;;;;;5.60;4.85;;;5.70;99.90;;;;;;494269;240;27857;-73
2023/11/12 00:26:39;;;;;;;8.45;5.12;;;5.70;99.90;;;;;;494270;240;27481;-73
2023/11/12 00:28:40;;;;;;;7.20;5.82;;;5.70;99.90;;;;;;494238;240;28096;-73
2023/11/12 00:30:41;;;;;;;7.65;5.40;;;5.70;99.90;;;;;;494263;240;27920;-72
2023/11/12 00:32:43;;;;;;;5.82;4.87;;;5.70;99.90;;;;;;494215;240;27498;-72
2023/11/12 00:34:44;;;;;;;5.18;4.68;;;5.70;99.90;;;;;;494253;240;27538;-74
2023/11/12 00:36:45;;;;;;;10.98;6.28;;;5.70;99.90;;;;;;494269;240;27461;-72
2023/11/12 00:38:46;;;;;;;5.95;4.72;;;5.70;99.90;;;;;;494183;240;27505;-72
2023/11/12 00:40:47;;;;;;;6.40;4.68;;;5.70;99.90;;;;;;494215;240;27491;-72
2023/11/12 00:42:49;;;;;;;4.70;4.30;;;5.70;99.90;;;;;;494269;239;27999;-72
2023/11/12 00:44:51;;;;;;;6.15;4.82;;;5.70;99.90;;;;;;494264;240;27995;-73
2023/11/12 00:46:51;;;;;;;6.62;5.03;;;5.70;99.90;;;;;;494125;240;27469;-72
2023/11/12 00:48:53;;;;;;;6.10;4.65;;;5.70;99.90;;;;;;494122;240;27579;-73
2023/11/12 00:50:54;;;;;;;7.95;5.60;;;5.70;99.90;;;;;;494160;240;27576;-75
2023/11/12 00:52:55;;;;;;;6.57;4.70;;;5.70;99.90;;;;;;494225;239;27461;-72
2023/11/12 00:54:56;;;;;;;7.07;5.00;;;5.70;99.90;;;;;;494259;240;27567;-73
2023/11/12 00:56:58;;;;;;;5.00;4.50;;;5.70;99.90;;;;;;494123;240;27984;-72
2023/11/12 00:58:59;;;;;;;6.75;5.10;;;5.70;99.90;;;;;;494140;240;27977;-72
2023/11/12 01:01:00;;;;;;;6.25;4.55;;;5.70;99.90;;;;;;494181;239;27614;-74
2023/11/12 01:03:06;;;;;;;6.75;4.43;;;5.70;99.90;;;;;;494150;240;27476;-72
2023/11/12 01:05:03;;;;;;;12.60;4.75;;;5.70;99.90;;;;;;493937;240;27496;-72
2023/11/12 01:07:04;;;;;;;5.10;4.50;;;5.80;99.90;;;;;;494207;240;27506;-74
2023/11/12 01:09:08;;;;;;;7.75;5.05;;;5.80;99.90;;;;;;494186;240;27468;-72
2023/11/12 01:11:06;;;;;;;5.87;5.00;;;5.80;99.90;;;;;;494089;240;27973;-72
2023/11/12 01:13:08;;;;;;;14.85;6.00;;;5.80;99.90;;;;;;494170;240;28036;-72
2023/11/12 01:15:09;;;;;;;7.40;5.28;;;5.80;99.90;;;;;;494137;240;27598;-73
2023/11/12 01:17:10;;;;;;;6.30;5.12;;;5.80;99.90;;;;;;494119;240;27611;-74
2023/11/12 01:19:11;;;;;;;7.93;4.90;;;5.80;99.90;;;;;;494128;238;27470;-72
2023/11/12 01:21:14;;;;;;;9.52;5.55;;;5.80;99.90;;;;;;494227;240;27512;-72
2023/11/12 01:23:14;;;;;;;5.72;4.45;;;5.80;99.90;;;;;;494182;240;27508;-72
2023/11/12 01:25:15;;;;;;;6.97;5.03;;;5.80;99.90;;;;;;494240;240;28062;-72
2023/11/12 01:27:16;;;;;;;5.45;4.70;;;5.80;99.90;;;;;;494267;240;27982;-73
2023/11/12 01:29:18;;;;;;;6.05;4.93;;;5.80;99.90;;;;;;494242;238;27587;-72
2023/11/12 01:31:19;;;;;;;5.45;4.70;;;5.80;99.90;;;;;;494241;240;27522;-73
2023/11/12 01:33:20;;;;;;;6.55;4.80;;;5.80;99.90;;;;;;494147;239;27461;-72
2023/11/12 01:35:21;;;;;;;8.82;5.57;;;5.80;99.90;;;;;;494174;240;27546;-72
2023/11/12 01:37:23;;;;;;;10.82;6.60;;;5.80;99.90;;;;;;494250;240;27512;-73
2023/11/12 01:39:24;;;;;;;8.85;6.32;;;5.80;99.90;;;;;;494232;240;28080;-72
2023/11/12 01:41:25;;;;;;;8.90;5.68;;;5.80;99.90;;;;;;494223;240;27998;-72
2023/11/12 01:43:26;;;;;;;8.18;5.43;;;5.80;99.90;;;;;;494155;238;27531;-72
2023/11/12 01:45:28;;;;;;;7.45;5.40;;;5.80;99.90;;;;;;494214;239;27602;-72
2023/11/12 01:47:29;;;;;;;6.62;5.10;;;5.80;99.90;;;;;;494215;240;27647;-73
2023/11/12 01:49:30;;;;;;;5.72;5.00;;;5.80;99.90;;;;;;494233;239;27542;-72
2023/11/12 01:51:32;;;;;;;7.30;5.20;;;5.90;99.90;;;;;;494220;240;27559;-72
2023/11/12 01:53:33;;;;;;;7.85;5.87;;;5.80;99.90;;;;;;494263;240;28000;-73
2023/11/12 01:55:34;;;;;;;6.68;4.82;;;5.90;99.90;;;;;;494247;240;27954;-72
2023/11/12 01:57:35;;;;;;;14.27;7.15;;;5.90;99.90;;;;;;494276;240;27606;-72
2023/11/12 01:59:37;;;;;;;6.78;5.43;;;5.90;99.90;;;;;;494147;240;27484;-72
2023/11/12 02:01:38;;;;;;;7.32;5.10;;;5.90;99.90;;;;;;494153;240;27531;-72
2023/11/12 02:03:40;;;;;;;7.43;4.85;;;5.90;99.90;;;;;;494093;240;27528;-74
2023/11/12 02:05:40;;;;;;;5.43;4.53;;;5.90;99.90;;;;;;494181;240;27465;-71
2023/11/12 02:07:45;;;;;;;8.35;5.50;;;5.90;99.90;;;;;;494160;240;28008;-72
2023/11/12 02:09:43;;;;;;;8.55;4.82;;;5.90;99.90;;;;;;494109;240;27979;-74
2023/11/12 02:11:44;;;;;;;11.90;5.70;;;5.90;99.90;;;;;;494190;240;27564;-73
2023/11/12 02:13:45;;;;;;;5.87;4.57;;;5.90;99.90;;;;;;494189;240;27506;-72
2023/11/12 02:15:47;;;;;;;11.02;4.85;;;5.90;99.90;;;;;;494190;240;27515;-72
2023/11/12 02:17:48;;;;;;;7.37;5.10;;;5.90;99.90;;;;;;494202;240;27505;-72
2023/11/12 02:19:49;;;;;;;5.60;4.30;;;5.90;99.90;;;;;;494249;240;28090;-73
2023/11/12 02:21:50;;;;;;;10.13;5.40;;;5.90;99.90;;;;;;494165;240;27924;-72
2023/11/12 02:23:52;;;;;;;10.57;5.35;;;5.90;99.90;;;;;;494175;240;27533;-72
2023/11/12 02:25:53;;;;;;;7.78;4.50;;;5.90;99.90;;;;;;494154;240;27568;-72
2023/11/12 02:27:55;;;;;;;9.48;5.47;;;5.90;99.90;;;;;;494277;240;27567;-72
2023/11/12 02:29:55;;;;;;;6.53;4.87;;;5.90;99.90;;;;;;494204;240;27495;-72
2023/11/12 02:31:58;;;;;;;13.27;5.70;;;5.90;99.90;;;;;;494195;240;27476;-72
2023/11/12 02:33:58;;;;;;;6.32;5.05;;;5.90;99.90;;;;;;494127;240;27986;-72
2023/11/12 02:35:59;;;;;;;4.70;4.30;;;5.90;99.90;;;;;;494253;240;28005;-72
2023/11/12 02:38:00;;;;;;;5.57;4.72;;;5.90;99.90;;;;;;494277;240;27457;-72
2023/11/12 02:40:02;;;;;;;7.40;5.43;;;5.90;99.90;;;;;;494281;240;27507;-72
2023/11/12 02:42:03;;;;;;;14.85;5.93;;;5.90;99.90;;;;;;494260;240;27466;-72
2023/11/12 02:44:07;;;;;;;13.60;5.00;;;5.90;99.90;;;;;;494313;240;27501;-72
2023/11/12 02:46:06;;;;;;;8.10;4.20;;;5.90;99.90;;;;;;494205;239;28063;-72
2023/11/12 02:48:07;;;;;;;8.60;5.03;;;5.90;99.90;;;;;;494183;240;28099;-72
2023/11/12 02:50:08;;;;;;;8.23;5.10;;;5.90;99.90;;;;;;494189;240;27507;-72
2023/11/12 02:52:09;;;;;;;6.05;4.12;;;5.80;99.90;;;;;;494200;240;27500;-73
2023/11/12 02:54:11;;;;;;;7.43;5.00;;;5.90;99.90;;;;;;494222;240;27484;-72
2023/11/12 02:56:12;;;;;;;8.82;4.22;;;5.90;99.90;;;;;;494215;240;27595;-72
2023/11/12 02:58:16;;;;;;;10.35;4.53;;;5.90;99.90;;;;;;494256;240;27463;-72
2023/11/12 03:00:14;;;;;;;5.47;4.20;;;5.90;99.90;;;;;;494140;238;27905;-72
2023/11/12 03:02:16;;;;;;;5.05;3.90;;;5.90;99.90;;;;;;494284;240;27984;-73
2023/11/12 03:04:18;;;;;;;9.82;5.28;;;5.90;99.90;;;;;;494259;240;27614;-72
2023/11/12 03:06:18;;;;;;;7.10;4.35;;;5.90;99.90;;;;;;494158;240;27579;-72
2023/11/12 03:08:20;;;;;;;9.98;4.57;;;5.90;99.90;;;;;;494197;239;27561;-72
2023/11/12 03:10:21;;;;;;;12.05;4.78;;;5.90;99.90;;;;;;494223;240;27472;-72
2023/11/12 03:12:22;;;;;;;5.85;4.20;;;5.90;99.90;;;;;;494266;240;27499;-73
2023/11/12 03:14:23;;;;;;;6.95;4.43;;;5.90;99.90;;;;;;494277;240;27921;-72
2023/11/12 03:16:24;;;;;;;13.85;5.00;;;5.90;99.90;;;;;;494168;240;28083;-72
2023/11/12 03:18:26;;;;;;;4.40;4.00;;;5.90;99.90;;;;;;494267;240;27562;-73
2023/11/12 03:20:27;;;;;;;11.68;4.47;;;5.90;99.90;;;;;;494186;240;27470;-72
2023/11/12 03:22:28;;;;;;;4.03;3.42;;;5.90;99.90;;;;;;494209;240;27588;-73
2023/11/12 03:24:29;;;;;;;7.12;4.37;;;5.90;99.90;;;;;;494279;240;27471;-72
2023/11/12 03:26:31;;;;;;;5.90;3.95;;;5.90;99.90;;;;;;494245;240;27948;-72
2023/11/12 03:28:32;;;;;;;5.22;3.95;;;5.90;99.90;;;;;;494271;240;27937;-73
2023/11/12 03:30:33;;;;;;;5.28;3.90;;;5.90;99.90;;;;;;494252;240;27459;-72
2023/11/12 03:32:34;;;;;;;6.95;3.72;;;5.90;99.90;;;;;;494234;238;27504;-72
2023/11/12 03:34:37;;;;;;;7.70;4.10;;;5.90;99.90;;;;;;494106;240;27529;-72
2023/11/12 03:36:37;;;;;;;5.78;3.95;;;5.90;99.90;;;;;;494165;239;27474;-73
2023/11/12 03:38:38;;;;;;;8.43;3.50;;;5.80;99.90;;;;;;494177;240;27525;-73
2023/11/12 03:40:40;;;;;;;6.70;3.58;;;5.80;99.90;;;;;;494024;240;27914;-71
2023/11/12 03:42:41;;;;;;;5.68;3.20;;;5.80;99.90;;;;;;494157;240;27975;-72
2023/11/12 03:44:42;;;;;;;7.35;3.70;;;5.80;99.90;;;;;;494245;239;27512;-72
2023/11/12 03:46:43;;;;;;;3.62;2.78;;;5.80;99.90;;;;;;494248;240;27492;-72
2023/11/12 03:48:45;;;;;;;6.90;3.15;;;5.80;99.90;;;;;;494150;240;27833;-72
2023/11/12 03:50:46;;;;;;;3.28;2.97;;;5.80;99.90;;;;;;494149;238;27473;-72
2023/11/12 03:52:48;;;;;;;6.05;3.60;;;5.90;99.90;;;;;;494170;240;27601;-72
2023/11/12 03:54:48;;;;;;;3.90;3.17;;;5.90;99.90;;;;;;494166;240;27997;-72
2023/11/12 03:56:50;;;;;;;4.05;2.95;;;5.90;99.90;;;;;;494158;240;27943;-72
2023/11/12 03:58:51;;;;;;;3.78;3.40;;;5.90;99.90;;;;;;494165;240;27511;-72
2023/11/12 04:00:52;;;;;;;5.90;3.03;;;5.90;99.90;;;;;;494098;240;27486;-72
2023/11/12 04:02:53;;;;;;;3.25;2.70;;;5.90;99.90;;;;;;494231;240;27571;-72
2023/11/12 04:04:55;;;;;;;7.05;3.28;;;5.90;99.90;;;;;;494152;240;27595;-72
2023/11/12 04:06:56;;;;;;;6.40;4.00;;;5.90;99.90;;;;;;494232;240;27469;-72
2023/11/12 04:08:57;;;;;;;5.68;3.50;;;5.90;99.90;;;;;;494242;240;28019;-72
2023/11/12 04:10:58;;;;;;;3.15;2.78;;;5.80;99.90;;;;;;494260;240;27989;-73
2023/11/12 04:13:02;;;;;;;5.25;2.65;;;5.80;99.90;;;;;;494218;240;27461;-72
2023/11/12 04:15:01;;;;;;;4.75;2.85;;;5.80;99.90;;;;;;494174;240;27517;-72
2023/11/12 04:17:02;;;;;;;3.80;2.50;;;5.70;99.90;;;;;;494155;240;27455;-72
2023/11/12 04:19:03;;;;;;;3.65;2.85;;;5.70;99.90;;;;;;494171;240;27501;-72
2023/11/12 04:21:05;;;;;;;4.30;2.70;;;5.70;99.90;;;;;;494195;240;27706;-72
2023/11/12 04:23:06;;;;;;;9.02;3.60;;;5.70;99.90;;;;;;494170;240;27973;-72
2023/11/12 04:25:07;;;;;;;5.43;3.37;;;5.70;99.90;;;;;;494167;240;27996;-73
2023/11/12 04:27:08;;;;;;;7.60;2.75;;;5.60;99.90;;;;;;494160;239;27579;-72
2023/11/12 04:29:10;;;;;;;7.72;2.80;;;5.60;99.90;;;;;;494241;240;27477;-72
2023/11/12 04:31:11;;;;;;;5.62;3.05;;;5.60;99.90;;;;;;494183;240;27496;-72
2023/11/12 04:33:12;;;;;;;2.75;2.50;;;5.60;99.90;;;;;;494131;238;27464;-72
2023/11/12 04:35:13;;;;;;;4.93;2.80;;;5.60;99.90;;;;;;494121;240;27589;-73
2023/11/12 04:37:15;;;;;;;4.37;2.30;;;5.60;99.90;;;;;;494226;240;27607;-73
2023/11/12 04:39:18;;;;;;;6.85;2.35;;;5.60;99.90;;;;;;494242;240;28007;-72
2023/11/12 04:41:17;;;;;;;7.10;2.70;;;5.60;99.90;;;;;;494096;239;27964;-72
2023/11/12 04:43:19;;;;;;;2.28;2.10;;;5.50;99.90;;;;;;494131;240;27518;-72
2023/11/12 04:45:20;;;;;;;6.05;2.90;;;5.50;99.90;;;;;;494145;240;27599;-72
2023/11/12 04:47:21;;;;;;;3.05;2.50;;;5.40;99.90;;;;;;494180;240;27495;-73
2023/11/12 04:49:24;;;;;;;8.38;2.87;;;5.40;99.90;;;;;;494176;240;27555;-72
2023/11/12 04:51:24;;;;;;;6.35;2.50;;;5.40;99.90;;;;;;494095;240;27596;-71
2023/11/12 04:53:25;;;;;;;4.60;2.37;;;5.30;99.90;;;;;;494145;240;28984;-72
2023/11/12 04:55:26;;;;;;;3.28;2.50;;;5.20;99.90;;;;;;494175;240;27936;-72
2023/11/12 04:57:27;;;;;;;6.50;2.37;;;5.20;99.90;;;;;;494174;240;27498;-72
2023/11/12 04:59:29;;;;;;;2.58;2.20;;;5.10;99.90;;;;;;494206;239;27500;-72
2023/11/12 05:01:30;;;;;;;4.35;2.37;;;5.10;99.90;;;;;;494219;240;27499;-73
2023/11/12 05:03:34;;;;;;;7.30;2.92;;;5.10;99.90;;;;;;494147;240;27956;-73
2023/11/12 05:05:36;;;;;;;3.53;2.80;;;5.20;99.90;;;;;;494239;238;28087;-73
2023/11/12 05:07:36;;;;;;;8.02;2.75;;;5.20;99.90;;;;;;494157;240;27483;-72
2023/11/12 05:09:38;;;;;;;2.90;2.60;;;5.20;99.90;;;;;;494165;240;27500;-73
2023/11/12 05:11:39;;;;;;;5.20;2.60;;;5.20;99.90;;;;;;494152;240;27525;-72
2023/11/12 05:13:40;;;;;;;5.05;2.80;;;5.20;99.90;;;;;;494138;240;27504;-74
2023/11/12 05:15:42;;;;;;;8.68;3.30;;;5.20;99.90;;;;;;494146;240;27509;-74
2023/11/12 05:17:43;;;;;;;7.25;3.70;;;5.10;99.90;;;;;;494215;240;27609;-73
2023/11/12 05:19:44;;;;;;;12.37;4.22;;;5.10;99.90;;;;;;494255;240;27970;-73
2023/11/12 05:21:45;;;;;;;6.57;3.17;;;5.00;99.90;;;;;;494067;240;28002;-72
2023/11/12 05:23:46;;;;;;;6.07;3.15;;;5.00;99.90;;;;;;494135;239;27493;-73
2023/11/12 05:25:48;;;;;;;3.92;2.80;;;5.10;99.90;;;;;;494169;240;27524;-74
2023/11/12 05:27:49;;;;;;;5.65;3.00;;;5.10;99.90;;;;;;494208;240;27581;-73
2023/11/12 05:29:52;;;;;;;4.75;3.00;;;5.10;99.90;;;;;;494230;239;27532;-72
2023/11/12 05:31:51;;;;;;;5.22;2.60;;;5.20;99.90;;;;;;494163;240;27587;-74
2023/11/12 05:33:53;;;;;;;2.80;2.55;;;5.10;99.90;;;;;;494261;240;27610;-73
2023/11/12 05:35:54;;;;;;;9.60;3.08;;;5.10;99.90;;;;;;494245;239;28021;-72
2023/11/12 05:37:55;;;;;;;4.55;2.95;;;5.00;99.90;;;;;;494223;240;27908;-72
2023/11/12 05:39:56;;;;;;;8.18;3.10;;;5.00;99.90;;;;;;494230;240;27980;-73
2023/11/12 05:41:58;;;;;;;4.07;2.70;;;5.00;99.90;;;;;;494250;240;27616;-74
2023/11/12 05:43:59;;;;;;;4.60;2.87;;;5.00;99.90;;;;;;494138;240;27522;-72
2023/11/12 05:46:00;;;;;;;8.15;3.00;;;5.00;99.90;;;;;;494013;240;27508;-72
2023/11/12 05:48:01;;;;;;;3.03;2.40;;;4.90;99.90;;;;;;494128;240;27480;-72
2023/11/12 05:50:03;;;;;;;4.28;2.67;;;4.90;99.90;;;;;;494161;239;27589;-73
2023/11/12 05:52:04;;;;;;;4.18;3.10;;;4.90;99.90;;;;;;494166;240;27508;-74
2023/11/12 05:54:06;;;;;;;4.37;3.42;;;4.80;99.90;;;;;;494149;240;28054;-73
2023/11/12 05:56:06;;;;;;;6.07;3.55;;;4.80;99.90;;;;;;494124;239;28070;-73
2023/11/12 05:58:08;;;;;;;6.65;3.75;;;4.70;99.90;;;;;;494143;240;28176;-72
2023/11/12 06:00:12;;;;;;;3.95;3.25;;;4.70;99.90;;;;;;494126;240;27524;-72
2023/11/12 06:02:10;;;;;;;6.07;3.78;;;4.60;99.90;;;;;;494085;240;27575;-73
2023/11/12 06:04:11;;;;;;;4.22;3.58;;;4.70;99.90;;;;;;494098;240;27487;-72
2023/11/12 06:06:13;;;;;;;9.70;4.12;;;4.60;99.90;;;;;;494053;239;27658;-73
2023/11/12 06:08:14;;;;;;;14.82;6.95;;;4.60;99.90;;;;;;494083;239;28101;-73
2023/11/12 06:10:15;;;;;;;15.65;7.78;;;4.60;99.90;;;;;;494085;238;27524;-72
2023/11/12 06:12:17;;;;;;;13.85;6.50;;;4.60;99.90;;;;;;494030;239;28046;-72
2023/11/12 06:14:18;;;;;;;9.52;6.43;;;4.50;99.90;;;;;;494085;240;27916;-72
2023/11/12 06:16:19;;;;;;;9.90;5.35;;;4.50;99.90;;;;;;494167;240;27536;-73
2023/11/12 06:18:20;;;;;;;9.60;4.57;;;4.50;99.90;;;;;;494253;240;27607;-74
2023/11/12 06:20:23;;;;;;;39.92;6.37;;;4.50;99.90;;;;;;494219;240;27544;-72
2023/11/12 06:22:23;;;;;;;48.83;9.07;;;4.40;99.90;;;;;;494079;240;27525;-72
2023/11/12 06:24:24;;;;;;;10.77;4.70;;;4.20;99.90;;;;;;494104;239;27466;-72
2023/11/12 06:26:25;;;;;;;17.80;4.78;;;4.20;99.90;;;;;;494196;240;27468;-72
2023/11/12 06:28:27;;;;;;;4.57;3.80;;;4.20;99.90;;;;;;494131;239;28011;-73
2023/11/12 06:30:28;;;;;;;4.80;2.87;;;4.30;99.90;;;;;;494208;240;27948;-72
2023/11/12 06:32:29;;;;;;;2.62;2.42;;;4.30;99.90;;;;;;494268;240;27994;-72
2023/11/12 06:34:30;;;;;;;2.55;2.35;;;4.30;99.90;;;;;;494268;240;27773;-72
2023/11/12 06:36:31;;;;;;;3.40;1.90;;;4.40;99.90;;;;;;494183;240;27448;-72
2023/11/12 06:38:33;;;;;;;2.15;1.95;;;4.40;99.90;;;;;;494180;240;27508;-73
2023/11/12 06:40:34;;;;;;;1.70;1.60;;;4.40;99.90;;;;;;494275;240;27477;-73
2023/11/12 06:42:35;;;;;;;1.90;1.80;;;4.40;99.90;;;;;;494177;240;27523;-73
2023/11/12 06:44:38;;;;;;;2.50;2.30;;;4.40;99.90;;;;;;494149;239;27870;-74
2023/11/12 06:46:38;;;;;;;2.30;2.00;;;4.40;99.90;;;;;;494088;240;27485;-73
2023/11/12 06:48:39;;;;;;;2.42;2.22;;;4.40;99.90;;;;;;494222;240;27610;-73
2023/11/12 06:50:40;;;;;;;2.30;2.15;;;4.50;99.90;;;;;;494207;240;27913;-73
2023/11/12 06:52:42;;;;;;;3.70;2.75;;;4.40;99.90;;;;;;494269;240;27971;-72
2023/11/12 06:54:43;;;;;;;5.07;3.33;;;4.40;99.90;;;;;;494268;240;27972;-74
2023/11/12 06:56:44;;;;;;;4.68;3.85;;;4.40;99.90;;;;;;494165;240;27479;-73
2023/11/12 06:58:45;;;;;;;3.72;2.95;;;4.30;99.90;;;;;;494179;240;27611;-73
2023/11/12 07:00:47;;;;;;;5.47;2.65;;;4.40;99.90;;;;;;494237;240;27562;-72
2023/11/12 07:02:48;;;;;;;5.30;2.97;;;4.30;99.90;;;;;;494267;240;27465;-73
2023/11/12 07:04:49;;;;;;;7.28;3.20;;;4.30;99.90;;;;;;494224;239;27522;-73
2023/11/12 07:06:50;;;;;;;7.10;3.10;;;4.30;99.90;;;;;;494155;240;27524;-72
2023/11/12 07:08:52;;;;;;;3.28;2.78;;;4.30;99.90;;;;;;494136;240;27496;-73
2023/11/12 07:10:53;;;;;;;3.12;2.30;;;4.30;99.90;;;;;;494174;240;28048;-74
2023/11/12 07:12:54;;;;;;;4.90;2.67;;;4.30;99.90;;;;;;494175;240;27944;-72
2023/11/12 07:14:55;;;;;;;2.50;2.30;;;4.30;99.90;;;;;;494157;240;28006;-73
2023/11/12 07:16:57;;;;;;;2.40;2.20;;;4.40;99.90;;;;;;494159;240;27465;-72
2023/11/12 07:18:58;;;;;;;2.58;2.37;;;4.40;99.90;;;;;;494173;240;27499;-73
2023/11/12 07:20:59;;;;;;;3.40;1.95;;;4.50;99.90;;;;;;494180;240;27632;-75
2023/11/12 07:23:01;;;;;;;2.50;2.40;;;4.40;99.90;;;;;;494197;239;27471;-73
2023/11/12 07:25:02;;;;;;;4.55;3.40;;;4.40;99.90;;;;;;494231;240;27524;-72
2023/11/12 07:27:03;;;;;;;5.75;3.90;;;4.50;99.90;;;;;;494135;240;27462;-72
2023/11/12 07:29:04;;;;;;;3.72;3.42;;;4.40;99.90;;;;;;494216;240;27568;-72
2023/11/12 07:31:05;;;;;;;6.07;4.47;;;4.40;99.90;;;;;;494161;239;28060;-73
2023/11/12 07:33:07;;;;;;;4.75;3.10;;;4.40;99.90;;;;;;494161;240;28184;-72
2023/11/12 07:35:08;;;;;;;3.30;3.00;;;4.50;99.90;;;;;;494264;239;28080;-72
2023/11/12 07:37:10;;;;;;;4.65;3.12;;;4.60;99.90;;;;;;494244;240;27512;-72
2023/11/12 07:39:13;;;;;;;4.18;3.25;;;4.70;99.90;;;;;;494145;240;27549;-72
2023/11/12 07:41:12;;;;;;;3.42;3.08;;;4.70;99.90;;;;;;494108;240;27503;-73
2023/11/12 07:43:14;;;;;;;4.20;3.00;;;4.80;99.90;;;;;;494192;239;27870;-73
2023/11/12 07:45:16;;;;;;;4.78;3.10;;;4.80;99.90;;;;;;494136;239;27540;-72
2023/11/12 07:47:16;;;;;;;4.68;2.28;;;4.90;99.90;;;;;;494141;240;27532;-73
2023/11/12 07:49:17;;;;;;;2.53;2.33;;;5.00;99.90;;;;;;494146;240;27479;-73
2023/11/12 07:51:18;;;;;;;6.15;3.37;;;5.00;99.90;;;;;;494128;240;28042;-73
2023/11/12 07:53:20;;;;;;;6.90;4.65;;;5.00;99.90;;;;;;494103;240;27999;-74
2023/11/12 07:55:21;;;;;;;3.60;3.30;;;5.10;99.90;;;;;;494125;240;27472;-72
2023/11/12 07:57:22;;;;;;;5.00;3.42;;;5.10;99.90;;;;;;494146;240;27495;-73
2023/11/12 07:59:23;;;;;;;2.62;2.42;;;5.00;99.90;;;;;;494170;239;27512;-76
2023/11/12 08:01:25;;;;;;;3.45;3.00;;;5.00;99.90;;;;;;494218;240;27478;-73
2023/11/12 08:03:26;;;;;;;2.67;2.47;;;5.00;99.90;;;;;;494175;240;27552;-73
2023/11/12 08:05:27;;;;;;;2.70;2.50;;;5.00;99.90;;;;;;494162;239;27952;-72
2023/11/12 08:07:28;;;;;;;7.00;2.92;;;5.00;99.90;;;;;;494153;239;28363;-73
2023/11/12 08:09:30;;;;;;;3.50;2.87;;;5.00;99.90;;;;;;494238;240;27502;-77
2023/11/12 08:11:31;;;;;;;2.72;2.53;;;5.00;99.90;;;;;;494229;240;27544;-72
2023/11/12 08:13:32;;;;;;;3.50;2.78;;;5.00;99.90;;;;;;494175;240;27523;-73
2023/11/12 08:15:33;;;;;;;4.82;2.90;;;5.00;99.90;;;;;;494168;240;27499;-73
2023/11/12 08:17:35;;;;;;;3.95;3.37;;;5.10;99.90;;;;;;494242;240;27470;-73
2023/11/12 08:19:36;;;;;;;3.33;3.03;;;5.00;99.90;;;;;;494161;240;27503;-73
2023/11/12 08:21:37;;;;;;;3.75;3.35;;;4.90;99.90;;;;;;494168;240;27996;-73
2023/11/12 08:23:39;;;;;;;3.40;3.20;;;4.90;99.90;;;;;;494174;240;28089;-73
2023/11/12 08:25:40;;;;;;;11.18;7.90;;;5.00;99.90;;;;;;494149;240;27563;-73
2023/11/12 08:27:41;;;;;;;30.15;11.75;;;5.00;99.90;;;;;;494159;240;27485;-73
2023/11/12 08:29:42;;;;;;;16.98;11.20;;;5.00;99.90;;;;;;494152;240;27618;-73
2023/11/12 08:31:44;;;;;;;9.75;7.22;;;5.10;99.90;;;;;;494136;240;27448;-73
2023/11/12 08:33:45;;;;;;;12.30;6.72;;;5.10;99.90;;;;;;494168;240;28047;-72
2023/11/12 08:35:46;;;;;;;8.88;6.22;;;5.20;99.90;;;;;;494190;240;27588;-72
2023/11/12 08:37:47;;;;;;;6.57;5.80;;;5.30;99.90;;;;;;494051;240;27460;-73
2023/11/12 08:39:49;;;;;;;5.65;4.47;;;5.30;99.90;;;;;;494153;240;27659;-73
2023/11/12 08:41:50;;;;;;;4.32;3.85;;;5.40;99.90;;;;;;494173;240;27936;-75
2023/11/12 08:43:51;;;;;;;8.75;3.95;;;5.40;99.90;;;;;;494247;240;27476;-73
2023/11/12 08:45:53;;;;;;;4.75;3.00;;;5.40;99.90;;;;;;494232;239;28838;-73
2023/11/12 08:47:55;;;;;;;4.00;3.05;;;5.50;99.90;;;;;;494233;240;27603;-72
2023/11/12 08:49:55;;;;;;;4.60;2.80;;;5.50;99.90;;;;;;494137;240;27516;-73
2023/11/12 08:51:56;;;;;;;5.05;3.30;;;5.60;99.90;;;;;;494181;238;27594;-75
2023/11/12 08:53:58;;;;;;;3.67;2.60;;;5.60;99.90;;;;;;494154;239;27481;-72
2023/11/12 08:55:59;;;;;;;4.47;2.65;;;5.70;99.90;;;;;;494163;240;27524;-72
2023/11/12 08:58:00;;;;;;;5.82;2.60;;;5.70;99.90;;;;;;494160;240;27477;-73
2023/11/12 09:00:05;;;;;;;3.55;2.50;;;5.70;99.90;;;;;;494143;239;28042;-73
2023/11/12 09:02:03;;;;;;;5.57;2.85;;;5.80;99.90;;;;;;493997;240;27584;-73
2023/11/12 09:04:04;;;;;;;4.97;2.40;;;5.90;99.90;;;;;;494162;240;27469;-72
2023/11/12 09:06:06;;;;;;;5.37;2.20;;;5.90;99.90;;;;;;494157;240;27614;-72
2023/11/12 09:08:07;;;;;;;2.25;2.05;;;5.90;99.90;;;;;;494170;239;27491;-73
2023/11/12 09:10:08;;;;;;;4.32;2.42;;;5.90;99.90;;;;;;494209;240;27914;-73
2023/11/12 09:12:09;;;;;;;2.85;2.20;;;6.00;99.90;;;;;;494250;239;28027;-72
2023/11/12 09:14:14;;;;;;;4.75;2.05;;;6.00;99.90;;;;;;494237;240;27479;-72
2023/11/12 09:16:13;;;;;;;3.80;2.07;;;6.10;99.90;;;;;;494030;240;27563;-73
2023/11/12 09:18:13;;;;;;;5.87;2.35;;;6.10;99.90;;;;;;494129;240;28941;-73
2023/11/12 09:20:15;;;;;;;5.63;2.20;;;6.20;99.90;;;;;;494265;239;27474;-73
2023/11/12 09:22:15;;;;;;;3.90;3.50;;;6.20;99.90;;;;;;494259;240;28528;-73
2023/11/12 09:24:17;;;;;;;21.57;3.20;;;6.30;99.90;;;;;;494240;240;28150;-72
2023/11/12 09:26:18;;;;;;;3.20;2.23;;;6.30;99.90;;;;;;494156;240;28403;-73
2023/11/12 09:28:19;;;;;;;1.90;1.80;;;6.30;99.90;;;;;;494046;240;28480;-73
2023/11/12 09:30:20;;;;;;;3.73;2.53;;;6.40;99.90;;;;;;494180;240;29264;-73
2023/11/12 09:32:22;;;;;;;3.87;2.10;;;6.50;99.90;;;;;;494151;240;28458;-73
2023/11/12 09:34:23;;;;;;;8.00;2.03;;;6.60;99.90;;;;;;494223;240;28001;-74
2023/11/12 09:36:24;;;;;;;3.77;1.90;;;6.50;99.90;;;;;;494222;240;27941;-72
2023/11/12 09:38:25;;;;;;;4.10;2.20;;;6.60;99.90;;;;;;494126;239;27628;-73
2023/11/12 09:40:31;;;;;;;3.93;1.67;;;6.70;99.90;;;;;;494110;239;28036;-73
2023/11/12 09:42:28;;;;;;;4.40;1.80;;;6.80;99.90;;;;;;494111;240;27921;-72
2023/11/12 09:44:29;;;;;;;4.00;2.00;;;6.90;99.90;;;;;;494180;240;28093;-73
2023/11/12 09:46:30;;;;;;;3.00;1.90;;;7.00;99.90;;;;;;494158;240;27943;-72
2023/11/12 09:48:35;;;;;;;4.20;1.80;;;7.00;99.90;;;;;;494174;240;27971;-73
2023/11/12 09:50:34;;;;;;;4.17;2.20;;;7.10;99.90;;;;;;494066;240;27855;-72
2023/11/12 09:52:35;;;;;;;4.40;2.63;;;7.00;99.90;;;;;;494139;240;28029;-73
2023/11/12 09:54:35;;;;;;;3.97;2.13;;;6.90;99.90;;;;;;494202;240;28093;-73
2023/11/12 09:56:37;;;;;;;2.50;2.30;;;6.80;99.90;;;;;;494192;239;27961;-73
2023/11/12 09:58:38;;;;;;;3.67;2.13;;;6.70;99.90;;;;;;494172;240;27626;-73
2023/11/12 10:00:39;;;;;;;4.37;2.53;;;6.80;99.90;;;;;;494211;240;27744;-73
2023/11/12 10:02:40;;;;;;;2.93;1.93;;;6.80;99.90;;;;;;494182;240;28403;-72
2023/11/12 10:04:42;;;;;;;13.63;2.27;;;6.80;99.90;;;;;;494180;240;28398;-73
2023/11/12 10:06:44;;;;;;;5.10;2.40;;;6.90;99.90;;;;;;494201;240;28380;-73
2023/11/12 10:08:45;;;;;;;5.40;2.00;;;6.90;99.90;;;;;;494158;240;28417;-73
2023/11/12 10:10:47;;;;;;;4.70;2.43;;;6.90;99.90;;;;;;494259;240;28470;-74
2023/11/12 10:12:47;;;;;;;3.50;2.00;;;6.90;99.90;;;;;;494232;240;27701;-72
2023/11/12 10:14:48;;;;;;;3.00;1.90;;;7.00;99.90;;;;;;494269;238;28082;-73
2023/11/12 10:16:49;;;;;;;2.00;1.80;;;7.00;99.90;;;;;;494255;240;28955;-73
2023/11/12 10:18:51;;;;;;;6.77;2.53;;;6.90;99.90;;;;;;494258;240;27816;-73
2023/11/12 10:20:52;;;;;;;4.80;3.30;;;6.90;99.90;;;;;;494257;240;27722;-74
2023/11/12 10:22:53;;;;;;;5.40;3.33;;;6.90;99.90;;;;;;494261;240;28087;-73
2023/11/12 10:24:54;;;;;;;5.23;3.20;;;6.80;99.90;;;;;;494247;239;27864;-73
2023/11/12 10:26:55;;;;;;;4.13;2.70;;;6.90;99.90;;;;;;494224;240;27908;-73
2023/11/12 10:28:56;;;;;;;3.07;2.23;;;6.90;99.90;;;;;;494270;240;27701;-73
2023/11/12 10:30:58;;;;;;;3.80;2.63;;;7.00;99.90;;;;;;494255;240;28016;-73
2023/11/12 10:33:00;;;;;;;3.23;2.57;;;7.00;99.90;;;;;;494276;239;28374;-73
2023/11/12 10:35:00;;;;;;;4.20;2.60;;;6.90;99.90;;;;;;494184;240;28827;-73
2023/11/12 10:37:02;;;;;;;4.80;3.00;;;6.90;99.90;;;;;;494183;238;27950;-72